Terminal Aerodrome Forecast
Issued by NWS

Home | Current Version | Previous Version | Text Only | Print | Product List | Glossary On
Versions: 1 2 3 4 5 6 7 8 9 10 11 12 13
000
FTUS45 KSLC 180533
TAFPVU
TAF
KPVU 180533Z 1806/1906 13009KT P6SM SKC
     FM181600 15010KT P6SM SCT100 BKN150
     FM181900 33015G25KT P6SM VCSH SCT070 BKN100
     FM190100 33012KT P6SM SCT070 BKN100
      AMD LTD TO CLD VIS AND WIND=

USA.gov is the U.S. government's official web portal to all federal, state and local government web resources and services.